createdAt,value
2023-05-15T00:01:30.834Z,99.90
2023-05-15T00:03:57.588Z,99.90
2023-05-15T00:06:24.270Z,99.90
2023-05-15T00:08:51.103Z,99.90
2023-05-15T00:11:17.837Z,99.90
2023-05-15T00:13:44.677Z,99.90
2023-05-15T00:16:11.431Z,99.90
2023-05-15T00:18:38.278Z,99.90
2023-05-15T00:21:05.040Z,99.90
2023-05-15T00:23:31.710Z,99.90
2023-05-15T00:25:58.395Z,99.90
2023-05-15T00:28:25.235Z,99.90
2023-05-15T00:30:52.442Z,99.90
2023-05-15T00:33:19.145Z,99.90
2023-05-15T00:35:46.234Z,99.90
2023-05-15T00:38:12.977Z,99.90
2023-05-15T00:40:39.878Z,99.90
2023-05-15T00:43:06.617Z,99.90
2023-05-15T00:45:33.307Z,99.90
2023-05-15T00:48:00.822Z,99.90
2023-05-15T00:50:27.595Z,99.90
2023-05-15T00:52:54.278Z,99.90
2023-05-15T00:55:20.989Z,99.90
2023-05-15T00:57:47.798Z,99.90
2023-05-15T01:00:16.870Z,99.90
2023-05-15T01:02:43.759Z,99.90
2023-05-15T01:05:10.707Z,99.90
2023-05-15T01:07:52.321Z,99.90
2023-05-15T01:10:19.386Z,99.90
2023-05-15T01:12:46.223Z,99.90
2023-05-15T01:15:13.048Z,99.90
2023-05-15T01:17:39.744Z,99.90
2023-05-15T01:20:07.069Z,99.90
2023-05-15T01:23:00.592Z,99.90
2023-05-15T01:25:53.976Z,99.90
2023-05-15T01:28:36.114Z,99.90
2023-05-15T01:31:05.666Z,99.90
2023-05-15T01:33:36.156Z,99.90
2023-05-15T01:36:19.120Z,99.90
2023-05-15T01:38:57.388Z,99.90
2023-05-15T01:41:28.749Z,99.90
2023-05-15T01:44:07.297Z,99.90
2023-05-15T01:46:35.306Z,99.90
2023-05-15T01:49:02.073Z,99.90
2023-05-15T01:51:28.809Z,99.90
2023-05-15T01:53:56.356Z,99.90
2023-05-15T01:56:23.269Z,99.90
2023-05-15T01:58:49.916Z,99.90
2023-05-15T02:01:16.655Z,99.90
2023-05-15T02:03:43.590Z,99.90
2023-05-15T02:06:10.354Z,99.90
2023-05-15T02:08:37.067Z,99.90
2023-05-15T02:11:03.825Z,99.90
2023-05-15T02:13:31.927Z,99.90
2023-05-15T02:15:58.803Z,99.90
2023-05-15T02:18:25.706Z,99.90
2023-05-15T02:20:52.383Z,99.90
2023-05-15T02:23:20.588Z,99.90
2023-05-15T02:26:11.938Z,99.90
2023-05-15T02:28:44.884Z,99.90
2023-05-15T02:31:24.508Z,99.90
2023-05-15T02:34:12.878Z,99.90
2023-05-15T02:36:40.876Z,99.90
2023-05-15T02:39:07.782Z,99.90
2023-05-15T02:41:34.445Z,99.90
2023-05-15T02:44:01.116Z,99.90
2023-05-15T02:46:27.833Z,99.90
2023-05-15T02:48:54.526Z,99.90
2023-05-15T02:51:21.302Z,99.90
2023-05-15T02:53:48.003Z,99.90
2023-05-15T02:56:14.671Z,99.90
2023-05-15T02:58:41.425Z,99.90
2023-05-15T03:01:08.185Z,99.90
2023-05-15T03:03:34.946Z,99.90
2023-05-15T03:06:01.687Z,99.90
2023-05-15T03:08:28.710Z,99.90
2023-05-15T03:10:55.425Z,99.90
2023-05-15T03:13:22.159Z,99.90
2023-05-15T03:15:49.056Z,99.90
2023-05-15T03:18:18.492Z,99.90
2023-05-15T03:20:45.798Z,99.90
2023-05-15T03:23:12.456Z,99.90
2023-05-15T03:25:39.275Z,99.90
2023-05-15T03:28:06.088Z,99.90
2023-05-15T03:30:32.838Z,99.90
2023-05-15T03:32:59.541Z,99.90
2023-05-15T03:35:27.149Z,99.90
2023-05-15T03:37:53.880Z,99.90
2023-05-15T03:40:20.630Z,99.90
2023-05-15T03:42:47.373Z,99.90
2023-05-15T03:45:14.098Z,99.90
2023-05-15T03:47:41.085Z,99.90
2023-05-15T03:50:08.030Z,99.90
2023-05-15T03:52:34.764Z,99.90
2023-05-15T03:55:01.741Z,99.90
2023-05-15T03:57:28.551Z,99.90
2023-05-15T03:59:55.594Z,99.90
2023-05-15T04:02:22.389Z,99.90
2023-05-15T04:04:49.197Z,99.90
2023-05-15T04:07:15.852Z,99.90
2023-05-15T04:09:42.837Z,99.90
2023-05-15T04:12:09.584Z,99.90
2023-05-15T04:14:36.373Z,99.90
2023-05-15T04:17:03.086Z,99.90
2023-05-15T04:19:29.781Z,99.90
2023-05-15T04:21:56.585Z,99.90
2023-05-15T04:24:23.269Z,99.90
2023-05-15T04:26:50.193Z,99.90
2023-05-15T04:29:16.910Z,99.90
2023-05-15T04:31:43.812Z,99.90
2023-05-15T04:34:10.686Z,99.90
2023-05-15T04:36:37.394Z,99.90
2023-05-15T04:39:04.250Z,99.90
2023-05-15T04:41:33.217Z,99.90
2023-05-15T04:43:59.894Z,99.90
2023-05-15T04:46:26.667Z,99.90
2023-05-15T04:48:53.368Z,99.90
2023-05-15T04:51:20.055Z,99.90
2023-05-15T04:53:46.769Z,99.90
2023-05-15T04:56:13.473Z,99.90
2023-05-15T04:58:40.212Z,99.90
2023-05-15T05:01:07.054Z,99.90
2023-05-15T05:03:33.769Z,99.90
2023-05-15T05:06:00.579Z,99.90
2023-05-15T05:08:27.236Z,99.90
2023-05-15T05:11:00.382Z,99.90
2023-05-15T05:13:27.459Z,99.90
2023-05-15T05:15:54.184Z,99.90
2023-05-15T05:18:20.938Z,99.90
2023-05-15T05:20:47.754Z,99.90
2023-05-15T05:23:18.219Z,99.90
2023-05-15T05:25:44.965Z,99.90
2023-05-15T05:28:11.622Z,99.90
2023-05-15T05:30:38.265Z,99.90
2023-05-15T05:33:05.084Z,99.90
2023-05-15T05:35:32.120Z,99.90
2023-05-15T05:37:58.931Z,99.90
2023-05-15T05:40:25.890Z,99.90
2023-05-15T05:42:52.798Z,99.90
2023-05-15T05:45:19.472Z,99.90
2023-05-15T05:47:46.620Z,99.90
2023-05-15T05:50:13.539Z,99.90
2023-05-15T05:52:40.332Z,99.90
2023-05-15T05:55:07.314Z,99.90
2023-05-15T05:57:34.058Z,99.90
2023-05-15T06:00:00.849Z,99.90
2023-05-15T06:02:27.631Z,99.90
2023-05-15T06:04:54.386Z,99.90
2023-05-15T06:07:21.716Z,99.90
2023-05-15T06:09:48.815Z,99.90
2023-05-15T06:12:15.511Z,99.90
2023-05-15T06:14:42.184Z,99.90
2023-05-15T06:17:09.177Z,99.90
2023-05-15T06:19:36.077Z,99.90
2023-05-15T06:22:02.811Z,99.90
2023-05-15T06:24:29.575Z,99.90
2023-05-15T06:26:56.407Z,99.90
2023-05-15T06:29:23.161Z,99.90
2023-05-15T06:31:49.851Z,99.90
2023-05-15T06:34:16.671Z,99.90
2023-05-15T06:36:43.429Z,99.90
2023-05-15T06:39:13.122Z,99.90
2023-05-15T06:41:39.833Z,99.90
2023-05-15T06:44:06.561Z,99.90
2023-05-15T06:46:33.379Z,99.90
2023-05-15T06:49:00.694Z,99.90
2023-05-15T06:51:27.383Z,99.90
2023-05-15T06:53:54.514Z,99.90
2023-05-15T06:56:21.872Z,99.90
2023-05-15T06:58:48.656Z,99.90
2023-05-15T07:01:15.853Z,99.90
2023-05-15T07:03:43.082Z,99.90
2023-05-15T07:06:09.879Z,99.90
2023-05-15T07:08:36.697Z,99.90
2023-05-15T07:11:03.613Z,99.90
2023-05-15T07:13:30.531Z,99.90
2023-05-15T07:15:57.217Z,99.90
2023-05-15T07:18:24.017Z,99.90
2023-05-15T07:20:50.804Z,99.90
2023-05-15T07:23:17.721Z,99.90
2023-05-15T07:25:45.914Z,99.90
2023-05-15T07:28:12.925Z,99.90
2023-05-15T07:30:41.257Z,99.90
2023-05-15T07:33:08.115Z,99.90
2023-05-15T07:35:35.135Z,99.90
2023-05-15T07:38:01.987Z,99.90
2023-05-15T07:40:28.888Z,99.90
2023-05-15T07:42:55.658Z,99.90
2023-05-15T07:45:22.599Z,99.90
2023-05-15T07:47:49.803Z,99.90
2023-05-15T07:50:16.726Z,99.90
2023-05-15T07:52:43.568Z,99.90
2023-05-15T07:55:10.727Z,99.90
2023-05-15T07:57:37.484Z,99.90
2023-05-15T08:00:10.109Z,99.90
2023-05-15T08:02:37.184Z,99.90
2023-05-15T08:05:04.363Z,99.90
2023-05-15T08:07:31.683Z,99.90
2023-05-15T08:09:58.562Z,99.90
2023-05-15T08:12:26.332Z,99.90
2023-05-15T08:14:54.086Z,99.90
2023-05-15T08:17:21.096Z,99.90
2023-05-15T08:19:48.282Z,99.90
2023-05-15T08:22:15.392Z,99.90
2023-05-15T08:24:42.205Z,99.90
2023-05-15T08:27:09.994Z,99.90
2023-05-15T08:29:39.319Z,99.90
2023-05-15T08:32:07.399Z,99.90
2023-05-15T08:34:34.113Z,99.90
2023-05-15T08:37:00.832Z,99.90
2023-05-15T08:39:27.572Z,99.90
2023-05-15T08:42:21.583Z,99.90
2023-05-15T08:44:48.539Z,99.90
2023-05-15T08:47:16.041Z,99.90
2023-05-15T08:50:18.505Z,99.90
2023-05-15T08:52:46.939Z,99.90
2023-05-15T08:55:14.871Z,99.90
2023-05-15T08:57:41.815Z,99.90
2023-05-15T09:00:09.413Z,99.90
2023-05-15T09:02:37.531Z,99.90
2023-05-15T09:05:05.214Z,99.90
2023-05-15T09:07:32.003Z,99.90
2023-05-15T09:09:59.540Z,99.90
2023-05-15T09:12:26.683Z,99.90
2023-05-15T09:15:10.952Z,99.90
2023-05-15T09:17:38.215Z,99.90
2023-05-15T09:20:08.577Z,99.90
2023-05-15T09:22:38.366Z,99.90
2023-05-15T09:25:05.428Z,99.90
2023-05-15T09:27:41.163Z,99.90
2023-05-15T09:30:11.045Z,99.90
2023-05-15T09:32:38.108Z,99.90
2023-05-15T09:35:05.154Z,99.90
2023-05-15T09:37:33.509Z,99.90
2023-05-15T09:40:11.056Z,99.90
2023-05-15T09:42:38.628Z,99.90
2023-05-15T09:45:06.528Z,99.90
2023-05-15T09:47:33.526Z,99.90
2023-05-15T09:50:00.535Z,98.50
2023-05-15T09:52:28.502Z,99.90
2023-05-15T09:54:56.294Z,99.90
2023-05-15T09:57:23.529Z,99.30
2023-05-15T09:59:50.552Z,99.90
2023-05-15T10:02:36.572Z,99.90
2023-05-15T10:05:03.405Z,98.40
2023-05-15T10:07:31.696Z,98.10
2023-05-15T10:09:59.023Z,99.50
2023-05-15T10:12:26.860Z,99.40
2023-05-15T10:14:55.358Z,98.60
2023-05-15T10:17:22.173Z,96.30
2023-05-15T10:19:58.046Z,94.20
2023-05-15T10:22:28.488Z,90.50
2023-05-15T10:25:03.208Z,91.40
2023-05-15T10:27:30.970Z,92.90
2023-05-15T10:29:57.814Z,92.10
2023-05-15T10:32:24.990Z,93.70
2023-05-15T10:34:51.884Z,93.30
2023-05-15T10:37:18.780Z,90.90
2023-05-15T10:39:46.548Z,92.60
2023-05-15T10:42:13.467Z,90.70
2023-05-15T10:44:40.245Z,92.30
2023-05-15T10:47:06.939Z,91.10
2023-05-15T10:49:33.845Z,91.30
2023-05-15T10:52:00.978Z,91.20
2023-05-15T10:54:28.627Z,89.90
2023-05-15T10:56:56.367Z,82.80
2023-05-15T10:59:30.225Z,81.10
2023-05-15T11:01:57.237Z,91.30
2023-05-15T11:04:24.210Z,87.10
2023-05-15T11:06:51.068Z,90.00
2023-05-15T11:09:27.961Z,91.50
2023-05-15T11:11:58.840Z,90.00
2023-05-15T11:14:26.245Z,91.00
2023-05-15T11:16:53.088Z,92.10
2023-05-15T11:19:28.684Z,91.60
2023-05-15T11:22:03.790Z,91.90
2023-05-15T11:24:31.166Z,91.70
2023-05-15T11:27:04.507Z,90.80
2023-05-15T11:29:35.092Z,91.80
2023-05-15T11:32:01.867Z,91.30
2023-05-15T11:34:34.497Z,91.70
2023-05-15T11:37:01.462Z,92.40
2023-05-15T11:39:29.015Z,93.60
2023-05-15T11:41:56.029Z,94.10
2023-05-15T11:44:23.411Z,94.00
2023-05-15T11:46:51.251Z,93.30
2023-05-15T11:49:21.092Z,92.20
2023-05-15T11:51:50.732Z,92.80
2023-05-15T11:54:17.512Z,91.60
2023-05-15T11:56:44.728Z,93.50
2023-05-15T11:59:15.080Z,92.90
2023-05-15T12:01:42.802Z,91.70
2023-05-15T12:04:16.344Z,92.40
2023-05-15T12:06:44.700Z,92.00
2023-05-15T12:09:18.996Z,90.20
2023-05-15T12:11:53.045Z,91.40
2023-05-15T12:14:29.927Z,91.60
2023-05-15T12:17:04.280Z,90.50
2023-05-15T12:19:31.453Z,91.00
2023-05-15T12:21:58.172Z,93.20
2023-05-15T12:24:26.434Z,92.10
2023-05-15T12:26:54.425Z,92.50
2023-05-15T12:29:22.725Z,92.60
2023-05-15T12:31:54.008Z,92.70
2023-05-15T12:34:21.324Z,93.20
2023-05-15T12:36:48.068Z,93.70
2023-05-15T12:39:14.703Z,93.40
2023-05-15T12:41:41.429Z,93.00
2023-05-15T12:44:18.365Z,92.90
2023-05-15T12:46:46.232Z,93.60
2023-05-15T12:49:13.047Z,93.80
2023-05-15T12:51:43.842Z,93.00
2023-05-15T12:54:20.533Z,93.30
2023-05-15T12:56:48.158Z,92.20
2023-05-15T12:59:15.063Z,93.90
2023-05-15T13:01:44.781Z,94.10
2023-05-15T13:04:11.858Z,94.70
2023-05-15T13:06:46.258Z,94.40
2023-05-15T13:09:13.898Z,94.30
2023-05-15T13:11:44.080Z,93.40
2023-05-15T13:14:17.448Z,93.40
2023-05-15T13:16:46.430Z,93.90
2023-05-15T13:19:13.822Z,90.90
2023-05-15T13:21:40.935Z,91.40
2023-05-15T13:24:10.046Z,93.40
2023-05-15T13:26:36.798Z,94.30
2023-05-15T13:29:03.561Z,92.40
2023-05-15T13:31:30.309Z,92.80
2023-05-15T13:33:57.064Z,92.10
2023-05-15T13:36:23.797Z,91.20
2023-05-15T13:38:50.579Z,88.50
2023-05-15T13:41:17.257Z,86.30
2023-05-15T13:43:44.223Z,89.50
2023-05-15T13:46:10.963Z,90.00
2023-05-15T13:48:37.694Z,89.60
2023-05-15T13:51:04.421Z,88.30
2023-05-15T13:53:31.158Z,87.90
2023-05-15T13:55:57.866Z,87.20
2023-05-15T13:58:26.705Z,86.40
2023-05-15T14:00:53.608Z,87.40
2023-05-15T14:03:20.685Z,88.00
2023-05-15T14:05:47.545Z,89.00
2023-05-15T14:08:15.735Z,89.70
2023-05-15T14:10:42.554Z,90.20
2023-05-15T14:13:09.806Z,89.80
2023-05-15T14:15:36.508Z,89.10
2023-05-15T14:18:03.373Z,86.10
2023-05-15T14:20:30.359Z,85.80
2023-05-15T14:22:57.041Z,87.90
2023-05-15T14:25:24.539Z,88.90
2023-05-15T14:27:51.325Z,89.30
2023-05-15T14:30:18.610Z,89.80
2023-05-15T14:32:45.537Z,90.00
2023-05-15T14:35:12.400Z,90.40
2023-05-15T14:37:39.145Z,90.50
2023-05-15T14:40:08.429Z,90.70
2023-05-15T14:42:35.313Z,90.00
2023-05-15T14:45:02.188Z,90.00
2023-05-15T14:47:30.013Z,89.30
2023-05-15T14:49:56.901Z,84.90
2023-05-15T14:52:23.602Z,84.80
2023-05-15T14:55:00.793Z,84.80
2023-05-15T14:57:34.324Z,84.80
2023-05-15T15:00:01.058Z,85.60
2023-05-15T15:02:27.858Z,86.40
2023-05-15T15:04:54.653Z,86.00
2023-05-15T15:07:21.676Z,86.70
2023-05-15T15:09:48.638Z,85.70
2023-05-15T15:12:15.516Z,86.50
2023-05-15T15:14:42.209Z,86.80
2023-05-15T15:17:08.954Z,87.30
2023-05-15T15:19:35.823Z,88.20
2023-05-15T15:22:02.624Z,86.90
2023-05-15T15:24:29.446Z,85.90
2023-05-15T15:26:56.343Z,87.30
2023-05-15T15:29:23.074Z,87.00
2023-05-15T15:31:50.321Z,86.60
2023-05-15T15:34:17.176Z,88.00
2023-05-15T15:36:45.152Z,89.60
2023-05-15T15:39:13.103Z,87.90
2023-05-15T15:41:39.944Z,90.00
2023-05-15T15:44:06.719Z,90.50
2023-05-15T15:46:33.842Z,90.10
2023-05-15T15:49:01.052Z,90.30
2023-05-15T15:51:28.150Z,90.20
2023-05-15T15:53:54.996Z,90.60
2023-05-15T15:56:22.279Z,90.60
2023-05-15T15:58:49.246Z,90.90
2023-05-15T16:01:16.174Z,91.30
2023-05-15T16:03:42.987Z,91.30
2023-05-15T16:06:09.749Z,91.30
2023-05-15T16:08:36.618Z,91.20
2023-05-15T16:11:03.675Z,91.40
2023-05-15T16:13:30.543Z,91.00
2023-05-15T16:15:57.320Z,92.00
2023-05-15T16:18:24.194Z,91.90
2023-05-15T16:20:50.978Z,91.10
2023-05-15T16:23:17.816Z,89.70
2023-05-15T16:25:44.771Z,88.70
2023-05-15T16:28:11.978Z,88.00
2023-05-15T16:30:48.195Z,87.70
2023-05-15T16:33:17.455Z,87.60
2023-05-15T16:35:44.423Z,89.00
2023-05-15T16:38:11.356Z,89.40
2023-05-15T16:40:38.080Z,89.10
2023-05-15T16:43:05.409Z,90.30
2023-05-15T16:45:32.208Z,90.30
2023-05-15T16:47:59.056Z,90.90
2023-05-15T16:50:26.145Z,91.40
2023-05-15T16:52:53.163Z,90.90
2023-05-15T16:55:20.104Z,90.40
2023-05-15T16:57:47.022Z,89.00
2023-05-15T17:00:14.310Z,88.60
2023-05-15T17:02:42.130Z,88.00
2023-05-15T17:05:09.937Z,86.40
2023-05-15T17:07:37.560Z,78.60
2023-05-15T17:10:05.455Z,82.90
2023-05-15T17:12:32.309Z,83.00
2023-05-15T17:14:59.075Z,82.20
2023-05-15T17:17:26.094Z,79.50
2023-05-15T17:19:53.079Z,78.90
2023-05-15T17:22:20.437Z,79.20
2023-05-15T17:24:50.774Z,79.10
2023-05-15T17:27:18.579Z,78.40
2023-05-15T17:29:45.493Z,78.10
2023-05-15T17:32:12.354Z,80.40
2023-05-15T17:34:39.233Z,82.80
2023-05-15T17:37:05.956Z,82.20
2023-05-15T17:39:32.985Z,81.60
2023-05-15T17:41:59.645Z,80.50
2023-05-15T17:44:29.684Z,78.20
2023-05-15T17:46:59.706Z,77.60
2023-05-15T17:49:26.667Z,78.10
2023-05-15T17:51:53.845Z,77.20
2023-05-15T17:54:20.561Z,77.10
2023-05-15T17:56:48.106Z,77.80
2023-05-15T17:59:14.946Z,76.50
2023-05-15T18:01:41.842Z,76.90
2023-05-15T18:04:08.782Z,75.00
2023-05-15T18:06:35.863Z,75.60
2023-05-15T18:09:03.108Z,74.70
2023-05-15T18:11:29.881Z,75.40
2023-05-15T18:13:56.666Z,75.30
2023-05-15T18:16:23.476Z,74.00
2023-05-15T18:18:52.078Z,73.90
2023-05-15T18:21:19.254Z,74.70
2023-05-15T18:23:46.092Z,74.50
2023-05-15T18:26:12.822Z,74.10
2023-05-15T18:28:39.582Z,74.10
2023-05-15T18:31:06.457Z,74.30
2023-05-15T18:33:33.718Z,75.60
2023-05-15T18:36:00.625Z,75.20
2023-05-15T18:38:27.443Z,76.20
2023-05-15T18:40:54.194Z,76.60
2023-05-15T18:43:21.468Z,77.20
2023-05-15T18:45:48.575Z,76.90
2023-05-15T18:48:15.618Z,77.60
2023-05-15T18:50:42.461Z,78.60
2023-05-15T18:53:09.263Z,79.50
2023-05-15T18:55:35.989Z,79.90
2023-05-15T18:58:02.826Z,81.90
2023-05-15T19:00:38.080Z,81.40
2023-05-15T19:03:05.584Z,83.40
2023-05-15T19:05:34.191Z,83.00
2023-05-15T19:08:01.841Z,84.10
2023-05-15T19:10:29.501Z,84.40
2023-05-15T19:12:57.063Z,85.40
2023-05-15T19:15:23.957Z,86.50
2023-05-15T19:17:50.768Z,87.30
2023-05-15T19:20:17.871Z,88.70
2023-05-15T19:22:44.611Z,88.60
2023-05-15T19:25:11.615Z,90.00
2023-05-15T19:27:38.337Z,90.40
2023-05-15T19:30:07.044Z,90.70
2023-05-15T19:32:34.331Z,90.90
2023-05-15T19:35:01.258Z,91.30
2023-05-15T19:37:28.549Z,91.40
2023-05-15T19:39:55.405Z,92.10
2023-05-15T19:42:22.137Z,92.20
2023-05-15T19:44:48.846Z,92.90
2023-05-15T19:47:15.572Z,93.10
2023-05-15T19:49:42.338Z,93.70
2023-05-15T19:52:09.007Z,94.20
2023-05-15T19:54:35.705Z,94.70
2023-05-15T19:57:03.071Z,95.30
2023-05-15T19:59:29.968Z,95.80
2023-05-15T20:01:57.000Z,96.30
2023-05-15T20:04:23.856Z,96.40
2023-05-15T20:06:50.758Z,96.70
2023-05-15T20:09:17.714Z,97.30
2023-05-15T20:11:45.174Z,97.80
2023-05-15T20:14:11.912Z,98.00
2023-05-15T20:16:38.760Z,98.20
2023-05-15T20:19:06.057Z,98.60
2023-05-15T20:21:32.965Z,98.70
2023-05-15T20:23:59.753Z,99.30
2023-05-15T20:26:26.537Z,99.60
2023-05-15T20:28:53.457Z,99.90
2023-05-15T20:31:20.478Z,99.90
2023-05-15T20:33:47.268Z,99.90
2023-05-15T20:36:15.262Z,99.90
2023-05-15T20:38:44.941Z,99.90
2023-05-15T20:41:11.762Z,99.90
2023-05-15T20:43:39.213Z,99.90
2023-05-15T20:46:08.888Z,99.90
2023-05-15T20:48:36.315Z,99.90
2023-05-15T20:51:03.256Z,99.90
2023-05-15T20:53:30.027Z,99.90
2023-05-15T20:55:56.766Z,99.90
2023-05-15T20:58:23.522Z,99.90
2023-05-15T21:00:50.521Z,99.90
2023-05-15T21:03:17.391Z,99.90
2023-05-15T21:05:44.719Z,99.90
2023-05-15T21:08:11.413Z,99.90
2023-05-15T21:10:38.161Z,99.90
2023-05-15T21:13:05.168Z,99.90
2023-05-15T21:15:32.026Z,99.90
2023-05-15T21:17:58.850Z,99.90
2023-05-15T21:20:26.761Z,99.90
2023-05-15T21:22:54.120Z,99.90
2023-05-15T21:25:21.236Z,99.90
2023-05-15T21:27:48.026Z,99.90
2023-05-15T21:30:14.985Z,99.90
2023-05-15T21:32:41.990Z,99.90
2023-05-15T21:35:09.911Z,99.90
2023-05-15T21:37:36.842Z,99.90
2023-05-15T21:40:04.428Z,99.90
2023-05-15T21:42:32.007Z,99.90
2023-05-15T21:44:59.257Z,99.90
2023-05-15T21:47:26.046Z,99.90
2023-05-15T21:49:52.865Z,99.90
2023-05-15T21:52:19.643Z,99.90
2023-05-15T21:54:46.394Z,99.90
2023-05-15T21:57:13.142Z,99.90
2023-05-15T21:59:39.864Z,99.90
2023-05-15T22:02:06.828Z,99.90
2023-05-15T22:04:33.572Z,99.90
2023-05-15T22:07:00.834Z,99.90
2023-05-15T22:09:27.538Z,99.90
2023-05-15T22:11:55.920Z,99.90
2023-05-15T22:14:22.613Z,99.90
2023-05-15T22:16:49.363Z,99.90
2023-05-15T22:19:31.536Z,99.90
2023-05-15T22:21:59.388Z,99.90
2023-05-15T22:24:26.277Z,99.90
2023-05-15T22:26:53.047Z,99.90
2023-05-15T22:29:19.859Z,99.90
2023-05-15T22:31:46.617Z,99.90
2023-05-15T22:34:13.707Z,99.90
2023-05-15T22:36:40.895Z,99.90
2023-05-15T22:39:08.016Z,99.90
2023-05-15T22:41:34.803Z,99.90
2023-05-15T22:44:02.440Z,99.90
2023-05-15T22:46:29.352Z,99.90
2023-05-15T22:48:59.001Z,99.90
2023-05-15T22:51:25.953Z,99.90
2023-05-15T22:54:14.501Z,99.90
2023-05-15T22:56:41.184Z,99.90
2023-05-15T22:59:28.271Z,99.90
2023-05-15T23:01:55.134Z,99.90
2023-05-15T23:04:22.085Z,99.90
2023-05-15T23:06:49.266Z,99.90
2023-05-15T23:09:16.266Z,99.90
2023-05-15T23:11:43.025Z,99.90
2023-05-15T23:14:09.740Z,99.90
2023-05-15T23:16:36.462Z,99.90
2023-05-15T23:19:03.250Z,99.90
2023-05-15T23:21:29.984Z,99.90
2023-05-15T23:23:56.748Z,99.90
2023-05-15T23:26:23.458Z,99.90
2023-05-15T23:28:50.501Z,99.90
2023-05-15T23:31:17.389Z,99.90
2023-05-15T23:33:44.275Z,99.90
2023-05-15T23:36:11.056Z,99.90
2023-05-15T23:38:40.475Z,99.90
2023-05-15T23:41:07.239Z,99.90
2023-05-15T23:43:34.131Z,99.90
2023-05-15T23:46:00.848Z,99.90
2023-05-15T23:48:28.036Z,99.90
2023-05-15T23:50:54.841Z,99.90
2023-05-15T23:53:21.623Z,99.90
2023-05-15T23:55:48.297Z,99.90
2023-05-15T23:58:14.998Z,99.90
